Latest Coastal Weather Observations for Adele Island

IDW60701

Issued at 10:25 pm WST Thursday 2 October 2014 (issued every 10 minutes, with the page automatically refreshed every 10 minutes)

About coastal observations | Map of coastal stations | Coastal observations for WA | Marine services | Other Formats
Station Details ID: 200735 Name: ADELE ISLAND Lat: -15.51 Lon: 123.16 Height: 4.6 m
Data from the previous 72 hours. | See also: Recent months for locations in Western Australia
Date/Time
WST
Temp

°C
Wind Pressure Rain
since 9am
mm
Weather Cloud Vis
km
Sea
Height
m
Swell
Dir
 
Speed
knots
Gust
knots
hPa Trend Height
m
Period
s
Dir
02/10:00pm 26.0 W 13 16 1012.2 - - - - - - - - -
02/09:30pm 26.1 W 13 16 1012.4 - - - - - - - - -
02/09:00pm 26.1 W 12 16 1012.5 - - - - - - - - -
02/08:30pm 26.2 W 12 15 1012.6 - - - - - - - - -
02/08:00pm 26.4 W 11 14 1012.6 - - - - - - - - -
02/07:30pm 26.2 WNW 10 13 1012.3 - - - - - - - - -
02/07:00pm 26.3 NW 10 13 1012.2 - - - - - - - - -
02/06:30pm 26.3 NW 9 12 1012.0 - - - - - - - - -
02/06:00pm 26.4 WNW 10 13 1011.7 - - - - - - - - -
02/05:30pm 26.6 WNW 10 13 1011.4 - - - - - - - - -
02/05:00pm 26.9 NW 10 12 1011.3 - - - - - - - - -
02/04:30pm 27.1 NW 10 12 1010.9 - - - - - - - - -
02/04:00pm 27.1 NNW 10 14 1010.7 - - - - - - - - -
02/03:30pm 27.3 NW 10 12 1010.5 - - - - - - - - -
02/03:00pm 27.2 NW 10 13 1010.5 - - - - - - - - -
02/02:30pm 27.2 NNW 10 11 1010.9 - - - - - - - - -
02/02:00pm 27.6 N 10 12 1011.2 - - - - - - - - -
02/01:30pm 27.0 N 10 14 1011.7 - - - - - - - - -
02/01:00pm 26.6 N 10 12 1011.9 - - - - - - - - -
02/12:30pm 27.4 N 7 11 1012.5 - - - - - - - - -
02/12:00pm 27.6 N 5 8 1012.7 - - - - - - - - -
02/11:30am 27.2 W 7 9 1012.8 - - - - - - - - -
02/11:00am 27.1 SW 9 12 1012.8 - - - - - - - - -
02/10:30am 26.8 WSW 10 13 1013.1 - - - - - - - - -
02/10:00am 26.8 WSW 9 12 1013.3 - - - - - - - - -
02/09:30am 26.6 W 7 10 1013.5 - - - - - - - - -
02/09:00am 27.1 NW 7 8 1013.7 - - - - - - - - -
02/08:30am 26.5 WNW 6 9 1013.7 - - - - - - - - -
02/08:00am 26.3 W 7 8 1013.6 - - - - - - - - -
02/07:30am 26.3 W 6 7 1013.7 - - - - - - - - -
02/07:00am 25.9 WNW 5 7 1013.4 - - - - - - - - -
02/06:30am 25.6 WNW 5 6 1012.9 - - - - - - - - -
02/06:00am 25.3 NNW 5 7 1012.6 - - - - - - - - -
02/05:30am 25.3 WNW 7 9 1012.0 - - - - - - - - -
02/05:00am 25.5 NW 6 7 1012.2 - - - - - - - - -
02/04:30am 25.5 NW 5 7 1012.1 - - - - - - - - -
02/04:00am 25.5 NW 6 7 1012.0 - - - - - - - - -
02/03:30am 25.7 N 3 5 1012.2 - - - - - - - - -
02/03:00am 25.6 NW 6 7 1012.1 - - - - - - - - -
02/02:30am 25.6 NW 6 8 1011.7 - - - - - - - - -
02/02:00am 25.6 NW 7 9 1011.6 - - - - - - - - -
02/01:30am 25.7 NW 7 9 1012.0 - - - - - - - - -
02/01:00am 25.7 WNW 7 8 1012.1 - - - - - - - - -
02/12:30am 25.6 W 8 10 1012.1 - - - - - - - - -
02/12:00am 25.7 W 9 11 1012.3 - - - - - - - - -
 
Date/Time
WST
Temp

°C
Wind Pressure Rain
since 9am
mm
Weather Cloud Vis
km
Sea
Height
m
Swell
Dir
 
Speed
knots
Gust
knots
hPa Trend Height
m
Period
s
Dir
01/11:30pm 25.8 W 9 11 1012.5 - - - - - - - - -
01/11:00pm 25.7 W 11 13 1012.7 - - - - - - - - -
01/10:30pm 26.0 W 11 13 1012.9 - - - - - - - - -
01/10:00pm 26.0 W 10 13 1013.0 - - - - - - - - -
01/09:30pm 25.9 WNW 11 13 1013.1 - - - - - - - - -
01/09:00pm 25.9 WNW 11 14 1013.1 - - - - - - - - -
01/08:30pm 26.0 WNW 13 16 1012.9 - - - - - - - - -
01/08:00pm 26.0 NW 11 14 1012.8 - - - - - - - - -
01/07:30pm 25.9 NW 11 13 1012.6 - - - - - - - - -
01/07:00pm 26.1 NW 12 15 1012.4 - - - - - - - - -
01/06:30pm 26.4 NW 11 13 1012.4 - - - - - - - - -
01/06:00pm 26.6 NNW 11 13 1012.2 - - - - - - - - -
01/05:30pm 26.7 NNW 10 13 1011.9 - - - - - - - - -
01/05:00pm 26.8 NNW 10 11 1011.6 - - - - - - - - -
01/04:30pm 26.8 N 11 13 1011.6 - - - - - - - - -
01/04:00pm 26.6 N 9 11 1011.4 - - - - - - - - -
01/03:30pm 27.2 N 10 11 1011.3 - - - - - - - - -
01/03:00pm 27.3 N 9 12 1011.4 - - - - - - - - -
01/02:30pm 27.1 N 9 11 1011.1 - - - - - - - - -
01/02:00pm 27.5 NNW 8 12 1011.3 - - - - - - - - -
01/01:30pm 27.5 NNW 9 12 1011.5 - - - - - - - - -
01/01:00pm 27.9 NNW 9 12 1011.7 - - - - - - - - -
01/12:30pm 27.6 NNW 9 11 1012.1 - - - - - - - - -
01/12:00pm 27.1 NNW 10 13 1012.7 - - - - - - - - -
01/11:30am 27.1 N 9 11 1013.1 - - - - - - - - -
01/11:00am 27.8 N 8 11 1013.5 - - - - - - - - -
01/10:30am 27.4 N 8 11 1014.0 - - - - - - - - -
01/10:00am 27.1 N 8 10 1014.4 - - - - - - - - -
01/09:30am 26.9 N 8 11 1014.6 - - - - - - - - -
01/09:00am 26.8 N 8 10 1014.3 - - - - - - - - -
01/08:30am 26.7 NNW 10 12 1014.0 - - - - - - - - -
01/08:00am 26.3 NNW 9 11 1013.8 - - - - - - - - -
01/07:30am 26.0 NNW 8 9 1013.8 - - - - - - - - -
01/07:00am 25.9 NNW 6 8 1013.7 - - - - - - - - -
01/06:30am 25.6 N 6 7 1013.4 - - - - - - - - -
01/06:00am 25.7 N 6 8 1013.2 - - - - - - - - -
01/05:30am 25.8 N 7 8 1013.1 - - - - - - - - -
01/05:00am 25.7 N 7 9 1012.6 - - - - - - - - -
01/04:30am 25.7 N 8 9 1012.0 - - - - - - - - -
01/04:00am 25.6 N 7 8 1011.8 - - - - - - - - -
01/03:30am 25.7 N 7 8 1011.8 - - - - - - - - -
01/03:00am 25.9 N 6 7 1011.7 - - - - - - - - -
01/02:30am 25.8 N 4 5 1011.7 - - - - - - - - -
01/02:00am 25.8 N 5 6 1011.8 - - - - - - - - -
01/01:30am 25.8 NNW 5 7 1011.5 - - - - - - - - -
01/01:00am 25.9 NNW 6 7 1011.6 - - - - - - - - -
01/12:30am 25.9 NNW 8 10 1011.6 - - - - - - - - -
01/12:00am 26.1 NNW 9 10 1011.9 - - - - - - - - -
 
Date/Time
WST
Temp

°C
Wind Pressure Rain
since 9am
mm
Weather Cloud Vis
km
Sea
Height
m
Swell
Dir
 
Speed
knots
Gust
knots
hPa Trend Height
m
Period
s
Dir
30/11:30pm 26.0 NNW 7 9 1012.2 - - - - - - - - -
30/11:00pm 25.6 NW 9 10 1012.2 - - - - - - - - -
30/10:30pm 25.9 NNW 7 8 1012.4 - - - - - - - - -
30/10:00pm 25.9 NW 6 7 1012.6 - - - - - - - - -
30/09:30pm 26.1 NW 6 7 1012.6 - - - - - - - - -
30/09:00pm 26.2 NNW 7 8 1012.5 - - - - - - - - -
30/08:30pm 26.2 NW 6 8 1012.5 - - - - - - - - -
30/08:00pm 26.6 WNW 7 7 1012.2 - - - - - - - - -
30/07:30pm 26.5 NW 6 7 1012.1 - - - - - - - - -
30/07:00pm 26.3 NW 7 7 1011.9 - - - - - - - - -
30/06:30pm 26.4 NW 8 9 1011.6 - - - - - - - - -
30/06:00pm 26.4 NW 8 10 1011.2 - - - - - - - - -
30/05:30pm 26.7 NW 10 11 1010.8 - - - - - - - - -
30/05:00pm 26.7 NW 10 13 1010.4 - - - - - - - - -
30/04:30pm 26.9 NW 10 12 1010.3 - - - - - - - - -
30/04:00pm 27.2 NW 11 13 1010.2 - - - - - - - - -
30/03:30pm 26.9 NNW 11 13 1010.0 - - - - - - - - -
30/03:00pm 27.4 NNW 10 11 1010.0 - - - - - - - - -
30/02:30pm 27.2 NNW 9 11 1010.3 - - - - - - - - -
30/02:00pm 27.3 NNW 9 11 1010.3 - - - - - - - - -
30/01:30pm 27.6 NNW 9 10 1010.3 - - - - - - - - -
30/01:00pm 27.4 NW 9 11 1010.4 - - - - - - - - -
30/12:30pm 27.9 NW 9 12 1010.6 - - - - - - - - -
30/12:00pm 27.1 NW 10 11 1011.1 - - - - - - - - -
30/11:30am 27.2 NW 10 12 1011.5 - - - - - - - - -
30/11:00am 27.2 NNW 9 11 1012.0 - - - - - - - - -
30/10:30am 28.3 NNW 8 10 1012.3 - - - - - - - - -
30/10:00am 27.5 N 7 10 1012.5 - - - - - - - - -
30/09:30am 26.6 N 8 10 1012.9 - - - - - - - - -
30/09:00am 26.4 N 7 9 1013.3 - - - - - - - - -
30/08:30am 26.9 N 5 6 1013.3 - - - - - - - - -
30/08:00am 26.7 NNE 4 5 1013.3 - - - - - - - - -
30/07:30am 26.0 CALM 0 4 1013.1 - - - - - - - - -
30/07:00am 25.7 W 3 3 1012.8 - - - - - - - - -
30/06:30am 25.3 W 4 5 1012.3 - - - - - - - - -
30/06:00am 25.4 WSW 5 6 1012.0 - - - - - - - - -
30/05:30am 25.1 W 5 6 1011.9 - - - - - - - - -
30/05:00am 25.1 CALM 0 0 1011.9 - - - - - - - - -
30/04:30am 24.9 CALM 0 0 1011.6 - - - - - - - - -
30/04:00am 24.7 CALM 0 0 1011.3 - - - - - - - - -
30/03:30am 25.4 NW 3 4 1010.7 - - - - - - - - -
30/03:00am 25.5 WNW 3 4 1010.6 - - - - - - - - -
30/02:30am 25.5 W 4 4 1010.6 - - - - - - - - -
30/02:00am 25.5 WSW 5 6 1010.6 - - - - - - - - -
30/01:30am 25.6 WNW 5 6 1010.7 - - - - - - - - -
30/01:00am 25.6 WSW 4 5 1010.8 - - - - - - - - -
30/12:30am 25.5 WNW 6 7 1010.9 - - - - - - - - -
30/12:00am 25.7 WSW 9 11 1010.9 - - - - - - - - -
 
Date/Time
WST
Temp

°C
Wind Pressure Rain
since 9am
mm
Weather Cloud Vis
km
Sea
Height
m
Swell
Dir
 
Speed
knots
Gust
knots
hPa Trend Height
m
Period
s
Dir
29/11:30pm 25.8 WSW 10 12 1011.1 - - - - - - - - -
29/11:00pm 25.7 W 11 15 1011.3 - - - - - - - - -
29/10:30pm 25.6 W 13 15 1011.2 - - - - - - - - -

Other Formats:

Comma delimited format used in spreadsheet applications
http://www.bom.gov.au/fwo/IDW60701/IDW60701.94210.axf

JavaScript Object Notation format (JSON) in row-major order
http://www.bom.gov.au/fwo/IDW60701/IDW60701.94210.json